Time;durP1;ratioP1;P1;durP2;ratioP2;P2;SDS_P1;SDS_P2;PMS_P1;PMS_P2;Temp;Humidity;BMP_temperature;BMP_pressure;BME280_temperature;BME280_humidity;BME280_pressure;Samples;Min_cycle;Max_cycle;Signal;HPM_P1;HPM_P2
2023/02/09 00:05:38;;;;;;;3.65;2.10;;;;;;;;;;21089400;28;20070;-66
2023/02/09 00:15:47;;;;;;;2.35;1.50;;;;;;;;;;21089491;28;20048;-65
2023/02/09 00:26:10;;;;;;;2.75;1.83;;;;;;;;;;21089894;28;20059;-65
2023/02/09 00:36:32;;;;;;;3.00;1.95;;;;;;;;;;21085142;28;20056;-65
2023/02/09 00:46:54;;;;;;;3.28;1.92;;;;;;;;;;21003257;28;20048;-65
2023/02/09 00:57:15;;;;;;;3.53;1.80;;;;;;;;;;21003858;28;20376;-66
2023/02/09 01:07:31;;;;;;;2.50;1.77;;;;;;;;;;21002503;28;20528;-66
2023/02/09 01:17:38;;;;;;;4.40;1.90;;;;;;;;;;21000383;28;20048;-66
2023/02/09 01:27:45;;;;;;;3.35;2.05;;;;;;;;;;20999477;28;20086;-67
2023/02/09 01:37:48;;;;;;;4.38;2.20;;;;;;;;;;21013130;28;20505;-66
2023/02/09 01:47:57;;;;;;;3.85;2.05;;;;;;;;;;21083267;28;20052;-64
2023/02/09 01:58:02;;;;;;;5.10;2.50;;;;;;;;;;21081232;28;20077;-66
2023/02/09 02:08:12;;;;;;;3.25;1.70;;;;;;;;;;21081760;28;20044;-64
2023/02/09 02:18:15;;;;;;;3.95;1.80;;;;;;;;;;21079816;28;20051;-65
2023/02/09 02:28:35;;;;;;;3.25;1.92;;;;;;;;;;21079055;28;20048;-65
2023/02/09 02:38:48;;;;;;;7.45;2.30;;;;;;;;;;21079222;28;20498;-65
2023/02/09 02:48:56;;;;;;;3.83;2.63;;;;;;;;;;21079848;28;20474;-65
2023/02/09 02:59:02;;;;;;;5.97;2.37;;;;;;;;;;21079053;28;20131;-64
2023/02/09 03:09:06;;;;;;;4.13;2.78;;;;;;;;;;21078863;28;20074;-65
2023/02/09 03:19:28;;;;;;;3.70;2.30;;;;;;;;;;21077285;28;20060;-64
2023/02/09 03:29:33;;;;;;;3.58;1.85;;;;;;;;;;21078248;28;20052;-64
2023/02/09 03:39:36;;;;;;;4.63;2.22;;;;;;;;;;21076001;28;20139;-64
2023/02/09 03:49:40;;;;;;;5.97;2.30;;;;;;;;;;21091536;28;20413;-64
2023/02/09 03:59:43;;;;;;;3.65;2.17;;;;;;;;;;21091638;28;20056;-65
2023/02/09 04:09:46;;;;;;;3.92;2.50;;;;;;;;;;21091213;28;20493;-66
2023/02/09 04:19:48;;;;;;;4.13;2.15;;;;;;;;;;21090244;28;20177;-64
2023/02/09 04:29:51;;;;;;;5.32;2.92;;;;;;;;;;21088051;28;20051;-65
2023/02/09 04:39:54;;;;;;;5.18;2.67;;;;;;;;;;21087369;28;20413;-64
2023/02/09 04:49:58;;;;;;;6.55;2.60;;;;;;;;;;21087987;28;20048;-67
2023/02/09 05:00:00;;;;;;;6.65;2.85;;;;;;;;;;21086987;28;20048;-64
2023/02/09 05:10:04;;;;;;;5.28;2.60;;;;;;;;;;21086438;28;20109;-65
2023/02/09 05:20:07;;;;;;;3.97;2.95;;;;;;;;;;21084166;28;20050;-65
2023/02/09 05:30:11;;;;;;;4.20;2.88;;;;;;;;;;21084560;28;20489;-65
2023/02/09 05:40:13;;;;;;;6.85;2.90;;;;;;;;;;21083338;28;20521;-65
2023/02/09 05:50:15;;;;;;;6.28;3.10;;;;;;;;;;21083198;28;20075;-65
2023/02/09 06:00:18;;;;;;;4.82;2.90;;;;;;;;;;21081341;28;20073;-66
2023/02/09 06:10:20;;;;;;;10.00;2.80;;;;;;;;;;21081606;28;20048;-66
2023/02/09 06:20:23;;;;;;;4.80;2.83;;;;;;;;;;21081363;28;20465;-66
2023/02/09 06:30:27;;;;;;;5.70;2.80;;;;;;;;;;21079088;28;20047;-66
2023/02/09 06:40:29;;;;;;;8.00;3.05;;;;;;;;;;21079460;28;20118;-67
2023/02/09 06:50:32;;;;;;;7.53;4.03;;;;;;;;;;21080481;28;20048;-68
2023/02/09 07:00:34;;;;;;;6.80;3.13;;;;;;;;;;21079406;28;20434;-67
2023/02/09 07:10:36;;;;;;;6.28;3.40;;;;;;;;;;21078463;28;20474;-67
2023/02/09 07:20:40;;;;;;;6.57;3.78;;;;;;;;;;21087516;28;20056;-67
2023/02/09 07:30:42;;;;;;;7.15;3.78;;;;;;;;;;21093933;28;20052;-67
2023/02/09 07:40:45;;;;;;;5.88;3.58;;;;;;;;;;21093295;28;20505;-67
2023/02/09 07:50:48;;;;;;;8.95;4.22;;;;;;;;;;21093617;28;20055;-67
2023/02/09 08:00:51;;;;;;;10.02;4.80;;;;;;;;;;21091390;28;20047;-66
2023/02/09 08:10:58;;;;;;;10.05;4.93;;;;;;;;;;21090827;28;20127;-67
2023/02/09 08:21:03;;;;;;;13.18;4.57;;;;;;;;;;21089159;28;20055;-67
2023/02/09 08:31:06;;;;;;;9.65;4.45;;;;;;;;;;21088384;28;20463;-67
2023/02/09 08:41:09;;;;;;;7.03;3.13;;;;;;;;;;21087855;28;20182;-66
2023/02/09 08:51:13;;;;;;;4.20;2.40;;;;;;;;;;21088014;28;20131;-67
2023/02/09 09:01:15;;;;;;;5.80;2.88;;;;;;;;;;21086837;28;20501;-67
2023/02/09 09:11:17;;;;;;;4.15;1.90;;;;;;;;;;21086782;28;20490;-66
2023/02/09 09:21:26;;;;;;;8.52;2.40;;;;;;;;;;21084939;28;20090;-67
2023/02/09 09:31:29;;;;;;;6.93;2.78;;;;;;;;;;21064678;28;20413;-67
2023/02/09 09:41:34;;;;;;;3.40;2.20;;;;;;;;;;21081886;28;20059;-64
2023/02/09 09:51:36;;;;;;;7.00;2.60;;;;;;;;;;21082050;28;20434;-63
2023/02/09 10:01:39;;;;;;;6.93;2.65;;;;;;;;;;21080309;28;20056;-64
2023/02/09 10:11:45;;;;;;;4.22;2.58;;;;;;;;;;21078451;28;20090;-65
2023/02/09 10:21:50;;;;;;;3.70;1.85;;;;;;;;;;21080013;28;20059;-62
2023/02/09 10:31:58;;;;;;;5.38;2.10;;;;;;;;;;21078281;28;20378;-63
2023/02/09 10:42:30;;;;;;;4.87;1.40;;;;;;;;;;21078289;28;20513;-70
2023/02/09 10:52:35;;;;;;;6.32;2.25;;;;;;;;;;20663817;28;20057;-70
2023/02/09 11:02:40;;;;;;;11.07;2.20;;;;;;;;;;20674356;28;20435;-73
2023/02/09 11:12:43;;;;;;;5.97;2.28;;;;;;;;;;20673330;28;20582;-68
2023/02/09 11:22:55;;;;;;;4.45;2.47;;;;;;;;;;20783990;28;20355;-62
2023/02/09 11:33:24;;;;;;;6.70;2.65;;;;;;;;;;21093291;28;20525;-68
2023/02/09 11:43:25;;;;;;;5.30;2.53;;;;;;;;;;21053531;28;20464;-67
2023/02/09 11:53:33;;;;;;;6.25;2.50;;;;;;;;;;21073925;28;20079;-68
2023/02/09 12:03:34;;;;;;;7.45;2.97;;;;;;;;;;21090685;28;20144;-69
2023/02/09 12:13:39;;;;;;;6.50;2.72;;;;;;;;;;21089583;28;20056;-71
2023/02/09 12:23:42;;;;;;;7.80;3.33;;;;;;;;;;21089086;28;20051;-70
2023/02/09 12:33:46;;;;;;;6.07;3.28;;;;;;;;;;21088473;28;20139;-74
2023/02/09 12:43:49;;;;;;;4.65;2.25;;;;;;;;;;21088146;28;20056;-68
2023/02/09 12:53:52;;;;;;;4.72;2.80;;;;;;;;;;21087685;28;20135;-67
2023/02/09 13:03:54;;;;;;;5.40;2.65;;;;;;;;;;21086449;28;20044;-70
2023/02/09 13:14:08;;;;;;;3.97;2.97;;;;;;;;;;21086085;28;20052;-69
2023/02/09 13:24:12;;;;;;;5.82;3.45;;;;;;;;;;21084520;28;20052;-69
2023/02/09 13:34:38;;;;;;;4.57;2.60;;;;;;;;;;21082734;28;20048;-70
2023/02/09 13:44:44;;;;;;;3.33;2.60;;;;;;;;;;20731656;28;20112;-70
2023/02/09 13:54:46;;;;;;;3.70;2.63;;;;;;;;;;20742767;28;20447;-71
2023/02/09 14:04:52;;;;;;;2.83;2.05;;;;;;;;;;20741932;28;20054;-70
2023/02/09 14:25:22;;;;;;;4.45;2.53;;;;;;;;;;20996999;28;20131;-72
2023/02/09 14:35:25;;;;;;;5.10;2.47;;;;;;;;;;20996959;28;20048;-70
2023/02/09 14:45:28;;;;;;;4.40;2.80;;;;;;;;;;21072249;28;20051;-70
2023/02/09 14:55:32;;;;;;;3.17;2.30;;;;;;;;;;21080606;28;20488;-70
2023/02/09 15:05:34;;;;;;;5.00;2.75;;;;;;;;;;21061033;28;20489;-73
2023/02/09 15:15:38;;;;;;;4.70;2.80;;;;;;;;;;21078585;28;20493;-72
2023/02/09 15:25:41;;;;;;;4.85;2.63;;;;;;;;;;21077444;28;20070;-71
2023/02/09 15:35:43;;;;;;;5.43;2.20;;;;;;;;;;21077548;28;20418;-70
2023/02/09 15:56:07;;;;;;;4.70;2.22;;;;;;;;;;21091161;28;20059;-72
2023/02/09 16:06:17;;;;;;;3.08;2.03;;;;;;;;;;21091563;28;20047;-73
2023/02/09 16:16:18;;;;;;;;;;;;;;;;;;21089970;28;20048;-71
2023/02/09 16:26:21;;;;;;;6.18;2.70;;;;;;;;;;21088874;28;20030;-72
2023/02/09 16:36:25;;;;;;;3.00;2.42;;;;;;;;;;21087844;28;20137;-72
2023/02/09 16:46:29;;;;;;;5.82;2.63;;;;;;;;;;21087528;28;20055;-71
2023/02/09 16:56:31;;;;;;;4.13;1.80;;;;;;;;;;21088340;28;20468;-71
2023/02/09 17:06:32;;;;;;;3.10;2.10;;;;;;;;;;21086213;28;20051;-71
2023/02/09 17:16:36;;;;;;;2.92;1.60;;;;;;;;;;21085318;28;20080;-71
2023/02/09 17:26:39;;;;;;;1.52;1.00;;;;;;;;;;21085951;28;20067;-70
2023/02/09 17:36:42;;;;;;;2.67;1.30;;;;;;;;;;21082613;28;20083;-71
2023/02/09 17:46:43;;;;;;;4.22;2.38;;;;;;;;;;21083795;28;20486;-71
2023/02/09 17:56:46;;;;;;;5.07;3.42;;;;;;;;;;21083351;28;20386;-70
2023/02/09 18:06:47;;;;;;;6.28;3.22;;;;;;;;;;21082384;28;20504;-70
2023/02/09 18:16:49;;;;;;;6.85;3.70;;;;;;;;;;21082207;28;20512;-69
2023/02/09 18:26:51;;;;;;;7.43;4.20;;;;;;;;;;21082276;28;20094;-68
2023/02/09 18:36:54;;;;;;;10.55;4.60;;;;;;;;;;21080528;28;20083;-70
2023/02/09 18:46:56;;;;;;;10.38;4.68;;;;;;;;;;21080724;28;20093;-72
2023/02/09 18:56:59;;;;;;;7.28;3.92;;;;;;;;;;21091378;28;20055;-72
2023/02/09 19:07:01;;;;;;;10.80;3.97;;;;;;;;;;21091280;28;20055;-72
2023/02/09 19:17:03;;;;;;;7.50;4.10;;;;;;;;;;21090577;28;20047;-70
2023/02/09 19:27:08;;;;;;;8.23;4.95;;;;;;;;;;21094814;28;20138;-70
2023/02/09 19:37:10;;;;;;;12.02;5.15;;;;;;;;;;21093146;28;20059;-71
2023/02/09 19:47:12;;;;;;;7.60;3.92;;;;;;;;;;21092730;28;20040;-71
2023/02/09 19:57:14;;;;;;;9.05;5.20;;;;;;;;;;21093410;28;20048;-72
2023/02/09 20:07:16;;;;;;;9.55;5.30;;;;;;;;;;21093250;28;20044;-71
2023/02/09 20:17:18;;;;;;;12.80;5.80;;;;;;;;;;21094133;28;20073;-71
2023/02/09 20:27:21;;;;;;;12.07;5.95;;;;;;;;;;21090741;28;20044;-72
2023/02/09 20:37:23;;;;;;;10.07;5.68;;;;;;;;;;21088536;28;20139;-71
2023/02/09 20:47:25;;;;;;;13.57;5.70;;;;;;;;;;21088819;28;20105;-71
2023/02/09 20:57:30;;;;;;;15.20;5.45;;;;;;;;;;21088676;28;20075;-74
2023/02/09 21:07:32;;;;;;;14.05;5.65;;;;;;;;;;21087348;28;20127;-72
2023/02/09 21:17:34;;;;;;;10.00;6.15;;;;;;;;;;21090853;28;20052;-71
2023/02/09 21:27:36;;;;;;;12.05;6.45;;;;;;;;;;21085669;28;20496;-72
2023/02/09 21:37:41;;;;;;;9.25;4.75;;;;;;;;;;21083511;28;20066;-72
2023/02/09 21:47:43;;;;;;;6.68;3.80;;;;;;;;;;21084709;28;20179;-71
2023/02/09 21:57:45;;;;;;;15.60;5.13;;;;;;;;;;21084163;28;20051;-71
2023/02/09 22:07:48;;;;;;;5.55;3.17;;;;;;;;;;21084584;28;20052;-72
2023/02/09 22:17:50;;;;;;;7.18;2.72;;;;;;;;;;21080677;28;20056;-74
2023/02/09 22:27:53;;;;;;;6.82;4.07;;;;;;;;;;21062347;28;20051;-71
2023/02/09 22:37:55;;;;;;;8.68;3.67;;;;;;;;;;21080559;28;20055;-71
2023/02/09 22:47:57;;;;;;;7.32;3.88;;;;;;;;;;21080183;28;20048;-71
2023/02/09 22:57:58;;;;;;;4.35;2.50;;;;;;;;;;21080134;28;20408;-70
2023/02/09 23:08:00;;;;;;;6.85;2.30;;;;;;;;;;21079340;28;20044;-71
2023/02/09 23:18:03;;;;;;;8.07;3.05;;;;;;;;;;21078024;28;20044;-73
2023/02/09 23:28:05;;;;;;;6.75;3.30;;;;;;;;;;21077897;28;20047;-71
2023/02/09 23:38:07;;;;;;;8.07;3.67;;;;;;;;;;21077017;28;20059;-72
2023/02/09 23:48:09;;;;;;;4.82;2.65;;;;;;;;;;21077158;28;20044;-72
2023/02/09 23:58:11;;;;;;;5.88;3.13;;;;;;;;;;21077415;28;20051;-71
